Time;durP1;ratioP1;P1;durP2;ratioP2;P2;SDS_P1;SDS_P2;PMS_P1;PMS_P2;Temp;Humidity;BMP_temperature;BMP_pressure;BME280_temperature;BME280_humidity;BME280_pressure;Samples;Min_cycle;Max_cycle;Signal;HPM_P1;HPM_P2
2023/09/25 00:01:02;;;;;;;;;;;;;;;12.61;100.00;100153.56;4868820;29;19932;-75
2023/09/25 00:03:28;;;;;;;;;;;;;;;12.58;100.00;100159.13;4868547;29;19970;-75
2023/09/25 00:05:54;;;;;;;;;;;;;;;12.63;100.00;100161.34;4867663;29;19928;-75
2023/09/25 00:08:20;;;;;;;;;;;;;;;12.62;100.00;100164.97;4853763;29;19931;-75
2023/09/25 00:10:45;;;;;;;;;;;;;;;12.71;100.00;100169.44;4868390;29;19928;-74
2023/09/25 00:13:10;;;;;;;;;;;;;;;12.55;100.00;100167.34;4870564;29;20441;-75
2023/09/25 00:15:46;;;;;;;;;;;;;;;12.52;100.00;100170.28;4850930;29;20065;-75
2023/09/25 00:18:13;;;;;;;;;;;;;;;12.52;100.00;100158.88;4853423;29;20301;-76
2023/09/25 00:20:38;;;;;;;;;;;;;;;12.43;100.00;100167.66;4866287;29;20472;-76
2023/09/25 00:23:04;;;;;;;;;;;;;;;12.51;100.00;100162.47;4868323;29;20045;-76
2023/09/25 00:25:31;;;;;;;;;;;;;;;12.44;100.00;100166.66;4867558;29;19931;-77
2023/09/25 00:27:56;;;;;;;;;;;;;;;12.26;100.00;100169.16;4868929;29;19924;-76
2023/09/25 00:30:22;;;;;;;;;;;;;;;12.22;100.00;100173.06;4853844;29;19935;-76
2023/09/25 00:32:50;;;;;;;;;;;;;;;12.19;100.00;100178.66;4852947;29;19938;-75
2023/09/25 00:35:15;;;;;;;;;;;;;;;12.20;100.00;100180.28;4868384;29;20030;-75
2023/09/25 00:37:41;;;;;;;;;;;;;;;12.24;100.00;100176.44;4858231;29;20582;-75
2023/09/25 00:40:24;;;;;;;;;;;;;;;12.12;100.00;100177.53;4873025;29;19932;-75
2023/09/25 00:42:53;;;;;;;;;;;;;;;12.00;100.00;100178.63;4854867;29;19924;-75
2023/09/25 00:45:20;;;;;;;;;;;;;;;12.00;100.00;100183.91;4857691;29;19943;-75
2023/09/25 00:47:46;;;;;;;;;;;;;;;11.96;100.00;100182.50;4869654;29;20456;-75
2023/09/25 00:50:11;;;;;;;;;;;;;;;11.99;100.00;100179.59;4874403;29;19926;-74
2023/09/25 00:52:40;;;;;;;;;;;;;;;11.93;100.00;100177.47;4851714;29;19930;-74
2023/09/25 00:55:06;;;;;;;;;;;;;;;11.80;100.00;100177.72;4872298;29;19924;-75
2023/09/25 00:57:38;;;;;;;;;;;;;;;11.80;100.00;100188.31;4850718;29;19960;-76
2023/09/25 01:00:04;;;;;;;;;;;;;;;11.84;100.00;100192.34;4861798;29;19924;-75
2023/09/25 01:02:34;;;;;;;;;;;;;;;11.86;100.00;100188.59;4839562;29;19925;-75
2023/09/25 01:05:00;;;;;;;;;;;;;;;11.82;100.00;100181.91;4840921;29;20011;-74
2023/09/25 01:07:25;;;;;;;;;;;;;;;11.68;100.00;100181.41;4841785;29;20030;-75
2023/09/25 01:10:04;;;;;;;;;;;;;;;11.59;100.00;100185.72;4858872;29;20119;-75
2023/09/25 01:12:29;;;;;;;;;;;;;;;11.55;100.00;100184.28;4850941;29;19928;-75
2023/09/25 01:14:55;;;;;;;;;;;;;;;11.61;100.00;100193.50;4867063;29;20015;-75
2023/09/25 01:17:20;;;;;;;;;;;;;;;11.65;100.00;100190.47;4869599;29;19923;-74
2023/09/25 01:19:45;;;;;;;;;;;;;;;11.70;100.00;100188.25;4849718;29;20404;-75
2023/09/25 01:22:11;;;;;;;;;;;;;;;11.64;100.00;100188.78;4868433;29;19924;-75
2023/09/25 01:24:36;;;;;;;;;;;;;;;11.41;100.00;100187.31;4866949;29;19979;-75
2023/09/25 01:27:02;;;;;;;;;;;;;;;11.21;100.00;100178.44;4845969;29;20001;-75
2023/09/25 01:29:27;;;;;;;;;;;;;;;11.05;100.00;100181.56;4845370;29;20452;-75
2023/09/25 01:31:52;;;;;;;;;;;;;;;11.08;100.00;100186.56;4862422;29;19929;-74
2023/09/25 01:34:18;;;;;;;;;;;;;;;11.12;100.00;100181.06;4862304;29;19961;-75
2023/09/25 01:36:43;;;;;;;;;;;;;;;11.25;100.00;100181.69;4844804;29;19928;-75
2023/09/25 01:39:10;;;;;;;;;;;;;;;11.24;100.00;100180.84;4862114;29;19928;-75
2023/09/25 01:41:35;;;;;;;;;;;;;;;11.29;100.00;100183.09;4844995;29;19946;-75
2023/09/25 01:44:01;;;;;;;;;;;;;;;11.30;100.00;100180.31;4845472;29;19924;-75
2023/09/25 01:46:26;;;;;;;;;;;;;;;11.25;100.00;100176.41;4861743;29;20309;-75
2023/09/25 01:48:51;;;;;;;;;;;;;;;11.33;100.00;100179.19;4845187;29;19998;-74
2023/09/25 01:51:18;;;;;;;;;;;;;;;11.39;100.00;100190.06;4845065;29;19924;-74
2023/09/25 01:53:46;;;;;;;;;;;;;;;11.42;100.00;100189.00;4861293;29;20769;-75
2023/09/25 01:56:14;;;;;;;;;;;;;;;11.45;100.00;100183.44;4861823;29;19972;-75
2023/09/25 01:58:41;;;;;;;;;;;;;;;11.56;100.00;100180.69;4844311;29;21312;-75
2023/09/25 02:01:06;;;;;;;;;;;;;;;11.65;100.00;100190.47;4829998;29;20027;-74
2023/09/25 02:03:32;;;;;;;;;;;;;;;11.67;100.00;100187.66;4844782;29;19968;-74
2023/09/25 02:05:57;;;;;;;;;;;;;;;11.64;100.00;100183.50;4861958;29;19924;-75
2023/09/25 02:08:25;;;;;;;;;;;;;;;11.68;100.00;100179.59;4844368;29;20385;-75
2023/09/25 02:10:50;;;;;;;;;;;;;;;11.50;100.00;100176.78;4861444;29;19924;-75
2023/09/25 02:13:15;;;;;;;;;;;;;;;11.51;100.00;100188.19;4861213;29;19957;-75
2023/09/25 02:15:41;;;;;;;;;;;;;;;11.40;100.00;100185.63;4861163;29;19924;-74
2023/09/25 02:18:08;;;;;;;;;;;;;;;11.34;100.00;100196.72;4861503;29;20282;-76
2023/09/25 02:20:34;;;;;;;;;;;;;;;11.25;100.00;100186.97;4861095;29;19956;-75
2023/09/25 02:22:59;;;;;;;;;;;;;;;11.25;100.00;100203.63;4861225;29;20400;-75
2023/09/25 02:25:24;;;;;;;;;;;;;;;11.08;100.00;100202.44;4860823;29;20555;-76
2023/09/25 02:27:51;;;;;;;;;;;;;;;11.07;100.00;100210.50;4843924;29;19924;-76
2023/09/25 02:30:16;;;;;;;;;;;;;;;11.05;100.00;100213.28;4861243;29;20381;-76
2023/09/25 02:32:43;;;;;;;;;;;;;;;11.08;100.00;100214.78;4860645;29;19924;-74
2023/09/25 02:35:09;;;;;;;;;;;;;;;10.91;100.00;100216.22;4861178;29;19928;-74
2023/09/25 02:37:36;;;;;;;;;;;;;;;10.85;100.00;100218.53;4860493;29;19924;-75
2023/09/25 02:40:02;;;;;;;;;;;;;;;10.94;100.00;100229.19;4860928;29;20451;-75
2023/09/25 02:42:27;;;;;;;;;;;;;;;10.81;100.00;100228.53;4860266;29;19925;-75
2023/09/25 02:44:52;;;;;;;;;;;;;;;10.84;100.00;100224.81;4844165;29;19924;-75
2023/09/25 02:47:18;;;;;;;;;;;;;;;10.85;100.00;100224.66;4844241;29;20358;-75
2023/09/25 02:49:43;;;;;;;;;;;;;;;10.90;100.00;100224.25;4844120;29;19928;-74
2023/09/25 02:52:09;;;;;;;;;;;;;;;10.93;100.00;100230.16;4860861;29;19978;-73
2023/09/25 02:54:34;;;;;;;;;;;;;;;10.87;100.00;100225.38;4860192;29;19924;-75
2023/09/25 02:56:59;;;;;;;;;;;;;;;10.71;100.00;100235.53;4860215;29;19931;-74
2023/09/25 02:59:25;;;;;;;;;;;;;;;10.70;100.00;100233.88;4860346;29;19924;-75
2023/09/25 03:01:50;;;;;;;;;;;;;;;10.70;100.00;100223.31;4843973;29;19932;-74
2023/09/25 03:04:15;;;;;;;;;;;;;;;10.75;100.00;100236.94;4860601;29;20362;-75
2023/09/25 03:06:41;;;;;;;;;;;;;;;10.67;100.00;100240.22;4843942;29;20071;-75
2023/09/25 03:09:06;;;;;;;;;;;;;;;10.43;100.00;100233.47;4860576;29;19946;-75
2023/09/25 03:11:32;;;;;;;;;;;;;;;10.40;100.00;100241.66;4859830;29;20299;-74
2023/09/25 03:13:57;;;;;;;;;;;;;;;10.38;100.00;100243.56;4860199;29;19987;-74
2023/09/25 03:16:23;;;;;;;;;;;;;;;10.47;100.00;100248.13;4860372;29;19924;-75
2023/09/25 03:18:49;;;;;;;;;;;;;;;10.51;100.00;100245.09;4843714;29;19935;-75
2023/09/25 03:21:17;;;;;;;;;;;;;;;10.53;100.00;100260.81;4856615;29;20270;-74
2023/09/25 03:23:45;;;;;;;;;;;;;;;10.57;100.00;100265.69;4843257;29;19928;-74
2023/09/25 03:26:14;;;;;;;;;;;;;;;10.60;100.00;100267.25;4859948;29;19932;-75
2023/09/25 03:28:40;;;;;;;;;;;;;;;10.61;100.00;100268.91;4842804;29;20035;-75
2023/09/25 03:31:06;;;;;;;;;;;;;;;10.70;100.00;100276.09;4843417;29;20015;-77
2023/09/25 03:33:31;;;;;;;;;;;;;;;10.78;100.00;100288.69;4842856;29;19946;-73
2023/09/25 03:35:57;;;;;;;;;;;;;;;10.81;100.00;100286.59;4843387;29;20385;-74
2023/09/25 03:38:23;;;;;;;;;;;;;;;10.84;100.00;100288.97;4843211;29;20365;-74
2023/09/25 03:40:48;;;;;;;;;;;;;;;10.89;100.00;100286.81;4843162;29;19928;-75
2023/09/25 03:43:14;;;;;;;;;;;;;;;10.94;100.00;100276.72;4842636;29;19927;-74
2023/09/25 03:45:40;;;;;;;;;;;;;;;10.98;100.00;100272.84;4842774;29;19932;-74
2023/09/25 03:48:06;;;;;;;;;;;;;;;10.96;100.00;100274.75;4843229;29;19932;-73
2023/09/25 03:50:31;;;;;;;;;;;;;;;10.93;100.00;100280.31;4858676;29;19920;-75
2023/09/25 03:53:00;;;;;;;;;;;;;;;10.95;100.00;100280.19;4843024;29;19924;-75
2023/09/25 03:55:25;;;;;;;;;;;;;;;10.99;100.00;100274.53;4842925;29;20072;-75
2023/09/25 03:57:50;;;;;;;;;;;;;;;11.02;100.00;100268.97;4842643;29;20011;-75
2023/09/25 04:00:16;;;;;;;;;;;;;;;11.00;100.00;100272.72;4859593;29;19924;-75
2023/09/25 04:02:42;;;;;;;;;;;;;;;10.94;100.00;100279.34;4858858;29;20407;-75
2023/09/25 04:05:08;;;;;;;;;;;;;;;10.82;100.00;100293.56;4859564;29;19931;-76
2023/09/25 04:07:33;;;;;;;;;;;;;;;10.62;100.00;100297.00;4841961;29;19924;-75
2023/09/25 04:09:59;;;;;;;;;;;;;;;10.51;100.00;100302.31;4859332;29;19931;-76
2023/09/25 04:12:24;;;;;;;;;;;;;;;10.44;100.00;100294.03;4858186;29;20011;-74
2023/09/25 04:14:53;;;;;;;;;;;;;;;10.52;100.00;100301.34;4858497;29;20377;-74
2023/09/25 04:17:20;;;;;;;;;;;;;;;10.48;100.00;100303.41;4856982;29;19924;-75
2023/09/25 04:19:46;;;;;;;;;;;;;;;10.44;100.00;100298.47;4858599;29;20011;-75
2023/09/25 04:22:11;;;;;;;;;;;;;;;10.39;100.00;100298.00;4841575;29;20449;-76
2023/09/25 04:24:37;;;;;;;;;;;;;;;10.35;100.00;100291.31;4858667;29;19996;-76
2023/09/25 04:27:03;;;;;;;;;;;;;;;10.35;100.00;100296.59;4865568;29;19930;-75
2023/09/25 04:29:28;;;;;;;;;;;;;;;10.35;100.00;100297.44;4866790;29;19961;-75
2023/09/25 04:31:53;;;;;;;;;;;;;;;10.22;100.00;100297.56;4852902;29;19939;-75
2023/09/25 04:34:19;;;;;;;;;;;;;;;10.26;100.00;100298.16;4866678;29;19999;-74
2023/09/25 04:36:48;;;;;;;;;;;;;;;10.24;100.00;100300.94;4869152;29;19928;-74
2023/09/25 04:39:16;;;;;;;;;;;;;;;10.23;100.00;100299.25;4849979;29;19924;-75
2023/09/25 04:41:45;;;;;;;;;;;;;;;10.16;100.00;100295.44;4873378;29;20945;-75
2023/09/25 04:44:10;;;;;;;;;;;;;;;10.21;100.00;100298.53;4868634;29;19964;-74
2023/09/25 04:46:37;;;;;;;;;;;;;;;10.13;100.00;100303.53;4867192;29;19959;-77
2023/09/25 04:49:02;;;;;;;;;;;;;;;10.16;100.00;100308.63;4867791;29;19924;-76
2023/09/25 04:51:28;;;;;;;;;;;;;;;10.21;100.00;100311.72;4868454;29;20457;-76
2023/09/25 04:53:53;;;;;;;;;;;;;;;10.24;100.00;100324.69;4866845;29;20425;-77
2023/09/25 04:56:20;;;;;;;;;;;;;;;10.26;100.00;100325.38;4869803;29;19934;-77
2023/09/25 04:58:45;;;;;;;;;;;;;;;10.26;100.00;100335.09;4868624;29;19923;-79
2023/09/25 05:01:10;;;;;;;;;;;;;;;10.31;100.00;100327.63;4871517;29;20293;-79
2023/09/25 05:03:36;;;;;;;;;;;;;;;10.33;100.00;100332.81;4871385;29;20022;-83
2023/09/25 05:06:03;;;;;;;;;;;;;;;10.34;100.00;100337.13;4847192;29;20266;-75
2023/09/25 05:08:28;;;;;;;;;;;;;;;10.34;100.00;100337.13;4865182;29;19932;-77
2023/09/25 05:10:57;;;;;;;;;;;;;;;10.34;100.00;100342.41;4868480;29;20411;-79
2023/09/25 05:13:24;;;;;;;;;;;;;;;10.36;100.00;100343.97;4876502;29;19927;-75
2023/09/25 05:15:49;;;;;;;;;;;;;;;10.39;100.00;100346.34;4852462;29;20307;-77
2023/09/25 05:18:15;;;;;;;;;;;;;;;10.39;100.00;100353.41;4856118;29;19999;-76
2023/09/25 05:20:40;;;;;;;;;;;;;;;10.40;100.00;100352.47;4877011;29;19966;-76
2023/09/25 05:23:05;;;;;;;;;;;;;;;10.36;100.00;100359.81;4876208;29;20393;-76
2023/09/25 05:25:32;;;;;;;;;;;;;;;10.38;100.00;100372.84;4876781;29;20018;-78
2023/09/25 05:27:58;;;;;;;;;;;;;;;10.42;100.00;100387.50;4872600;29;20499;-76
2023/09/25 05:30:23;;;;;;;;;;;;;;;10.48;100.00;100387.84;4867171;29;19955;-82
2023/09/25 05:32:50;;;;;;;;;;;;;;;10.44;100.00;100391.66;4864484;29;19932;-78
2023/09/25 05:35:16;;;;;;;;;;;;;;;10.53;100.00;100395.41;4922230;23;19974;-78
2023/09/25 05:37:48;;;;;;;;;;;;;;;10.58;100.00;100394.06;4922994;29;19935;-79
2023/09/25 05:40:14;;;;;;;;;;;;;;;10.65;100.00;100389.13;4922455;29;20117;-78
2023/09/25 05:42:40;;;;;;;;;;;;;;;10.69;100.00;100385.28;4923679;29;19946;-78
2023/09/25 05:45:06;;;;;;;;;;;;;;;10.69;100.00;100382.63;4922711;29;19926;-78
2023/09/25 05:47:31;;;;;;;;;;;;;;;10.70;100.00;100391.41;4922533;29;19930;-78
2023/09/25 05:49:56;;;;;;;;;;;;;;;10.75;100.00;100384.78;4923493;29;19922;-77
2023/09/25 05:52:22;;;;;;;;;;;;;;;10.80;100.00;100382.59;4920805;29;20018;-78
2023/09/25 05:54:49;;;;;;;;;;;;;;;10.84;100.00;100383.22;4921547;29;19929;-77
2023/09/25 05:57:14;;;;;;;;;;;;;;;10.83;100.00;100398.22;4925491;29;19966;-78
2023/09/25 05:59:39;;;;;;;;;;;;;;;10.73;100.00;100396.41;4921795;29;20432;-78
2023/09/25 06:02:05;;;;;;;;;;;;;;;10.70;100.00;100394.03;4906456;29;19962;-78
2023/09/25 06:04:35;;;;;;;;;;;;;;;10.69;100.00;100385.28;4922373;29;19947;-76
2023/09/25 06:07:00;;;;;;;;;;;;;;;10.61;100.00;100387.69;4922432;29;19931;-77
2023/09/25 06:09:25;;;;;;;;;;;;;;;10.54;100.00;100402.34;4923437;29;20311;-78
2023/09/25 06:11:51;;;;;;;;;;;;;;;10.62;100.00;100394.66;4921099;29;19971;-77
2023/09/25 06:14:16;;;;;;;;;;;;;;;10.68;100.00;100402.06;4926829;29;19922;-77
2023/09/25 06:16:41;;;;;;;;;;;;;;;10.74;100.00;100398.94;4924795;29;19927;-77
2023/09/25 06:19:08;;;;;;;;;;;;;;;10.69;100.00;100406.41;4926274;29;19946;-77
2023/09/25 06:21:33;;;;;;;;;;;;;;;10.74;100.00;100404.22;4924879;29;19970;-77
2023/09/25 06:23:59;;;;;;;;;;;;;;;10.87;100.00;100404.91;4926495;29;20388;-77
2023/09/25 06:26:27;;;;;;;;;;;;;;;10.88;100.00;100401.31;4924381;29;19919;-77
2023/09/25 06:28:53;;;;;;;;;;;;;;;10.82;100.00;100411.53;4927100;29;19923;-77
2023/09/25 06:31:18;;;;;;;;;;;;;;;10.73;100.00;100405.19;4924370;29;20619;-77
2023/09/25 06:33:45;;;;;;;;;;;;;;;10.65;100.00;100394.41;4926668;29;20684;-77
2023/09/25 06:36:11;;;;;;;;;;;;;;;10.61;100.00;100403.50;4924493;29;19967;-77
2023/09/25 06:38:36;;;;;;;;;;;;;;;10.62;100.00;100400.75;4925612;29;20006;-77
2023/09/25 06:41:01;;;;;;;;;;;;;;;10.67;100.00;100409.16;4925804;29;19929;-77
2023/09/25 06:43:27;;;;;;;;;;;;;;;10.73;100.00;100402.53;4924621;29;19930;-76
2023/09/25 06:45:52;;;;;;;;;;;;;;;10.79;100.00;100396.78;4926927;29;19919;-77
2023/09/25 06:48:18;;;;;;;;;;;;;;;10.89;100.00;100397.72;4923921;29;19974;-78
2023/09/25 06:50:43;;;;;;;;;;;;;;;10.96;100.00;100404.16;4922912;29;20341;-77
2023/09/25 06:53:10;;;;;;;;;;;;;;;11.10;100.00;100403.03;4925853;29;20295;-78
2023/09/25 06:55:37;;;;;;;;;;;;;;;11.22;100.00;100398.56;4924754;29;19923;-77
2023/09/25 06:58:03;;;;;;;;;;;;;;;11.35;100.00;100393.94;4908177;29;19954;-78
2023/09/25 07:00:28;;;;;;;;;;;;;;;11.45;100.00;100389.56;4925654;29;19969;-77
2023/09/25 07:02:54;;;;;;;;;;;;;;;11.58;100.00;100389.38;4924009;29;19931;-78
2023/09/25 07:05:19;;;;;;;;;;;;;;;11.61;100.00;100395.22;4926569;29;20395;-78
2023/09/25 07:07:45;;;;;;;;;;;;;;;11.66;100.00;100390.41;4923084;29;20391;-77
2023/09/25 07:10:10;;;;;;;;;;;;;;;11.75;100.00;100402.03;4925898;29;19926;-77
2023/09/25 07:12:37;;;;;;;;;;;;;;;11.78;100.00;100392.03;4924367;29;19941;-76
2023/09/25 07:15:02;;;;;;;;;;;;;;;11.92;100.00;100400.59;4924769;29;19924;-76
2023/09/25 07:17:28;;;;;;;;;;;;;;;12.00;100.00;100399.00;4925383;29;19929;-77
2023/09/25 07:19:57;;;;;;;;;;;;;;;12.07;100.00;100399.31;4923322;29;19983;-77
2023/09/25 07:22:24;;;;;;;;;;;;;;;12.08;100.00;100399.16;4906583;29;19975;-77
2023/09/25 07:24:49;;;;;;;;;;;;;;;12.15;100.00;100397.66;4908919;29;20003;-76
2023/09/25 07:27:15;;;;;;;;;;;;;;;12.17;100.00;100394.91;4923241;29;20026;-76
2023/09/25 07:29:44;;;;;;;;;;;;;;;12.30;100.00;100391.06;4925299;29;21321;-75
2023/09/25 07:32:11;;;;;;;;;;;;;;;12.42;100.00;100386.50;4923931;29;19934;-77
2023/09/25 07:34:37;;;;;;;;;;;;;;;12.50;100.00;100394.59;4924226;29;19923;-76
2023/09/25 07:37:04;;;;;;;;;;;;;;;12.58;100.00;100391.28;4924665;29;20327;-77
2023/09/25 07:39:30;;;;;;;;;;;;;;;12.55;100.00;100396.84;5177640;23;20441;-78
2023/09/25 07:41:56;;;;;;;;;;;;;;;12.62;100.00;100401.47;4892979;29;20067;-75
2023/09/25 07:44:26;;;;;;;;;;;;;;;12.73;100.00;100406.66;4889508;29;20316;-77
2023/09/25 07:46:51;;;;;;;;;;;;;;;12.85;100.00;100401.22;4868008;29;20289;-77
2023/09/25 07:49:18;;;;;;;;;;;;;;;12.94;100.00;100408.38;4888279;29;19934;-76
2023/09/25 07:51:43;;;;;;;;;;;;;;;13.06;100.00;100407.28;4868080;29;19930;-77
2023/09/25 07:54:08;;;;;;;;;;;;;;;13.18;100.00;100410.66;4886752;29;19924;-78
2023/09/25 07:56:34;;;;;;;;;;;;;;;13.29;100.00;100408.72;4885692;29;19971;-78
2023/09/25 07:59:00;;;;;;;;;;;;;;;13.39;100.00;100409.53;4885869;29;19923;-77
2023/09/25 08:01:31;;;;;;;;;;;;;;;13.48;100.00;100414.03;4887345;29;19971;-77
2023/09/25 08:03:57;;;;;;;;;;;;;;;13.58;100.00;100419.31;4885531;29;20393;-77
2023/09/25 08:06:24;;;;;;;;;;;;;;;13.64;100.00;100423.22;4887674;29;20003;-77
2023/09/25 08:08:50;;;;;;;;;;;;;;;13.73;100.00;100427.66;4884231;29;20059;-77
2023/09/25 08:11:18;;;;;;;;;;;;;;;13.80;100.00;100424.28;4887449;29;20345;-78
2023/09/25 08:13:44;;;;;;;;;;;;;;;13.89;100.00;100422.63;4887281;29;19927;-77
2023/09/25 08:16:09;;;;;;;;;;;;;;;13.97;100.00;100420.06;4884167;29;20243;-77
2023/09/25 08:18:35;;;;;;;;;;;;;;;14.09;100.00;100412.78;4886497;29;19963;-78
2023/09/25 08:21:00;;;;;;;;;;;;;;;14.17;100.00;100419.03;4885893;29;19967;-77
2023/09/25 08:23:26;;;;;;;;;;;;;;;14.21;100.00;100412.44;4886899;29;20029;-77
2023/09/25 08:25:51;;;;;;;;;;;;;;;14.27;100.00;100411.88;4867461;29;19924;-79
2023/09/25 08:28:17;;;;;;;;;;;;;;;14.33;100.00;100405.97;4887258;29;19923;-78
2023/09/25 08:30:42;;;;;;;;;;;;;;;14.41;100.00;100407.09;4884531;29;19928;-78
2023/09/25 08:33:07;;;;;;;;;;;;;;;14.51;100.00;100403.41;4886282;29;19946;-76
2023/09/25 08:35:33;;;;;;;;;;;;;;;14.62;100.00;100399.72;4885108;29;19967;-77
2023/09/25 08:37:59;;;;;;;;;;;;;;;14.69;100.00;100399.00;4885380;29;19928;-76
2023/09/25 08:40:24;;;;;;;;;;;;;;;14.79;100.00;100398.09;4869526;29;19927;-76
2023/09/25 08:42:51;;;;;;;;;;;;;;;14.89;100.00;100402.38;4870143;29;20333;-77
2023/09/25 08:45:18;;;;;;;;;;;;;;;14.95;100.00;100412.41;4883988;29;19932;-77
2023/09/25 08:47:45;;;;;;;;;;;;;;;15.02;100.00;100407.34;4886358;29;20440;-76
2023/09/25 08:50:10;;;;;;;;;;;;;;;15.03;100.00;100403.66;4884721;29;19935;-76
2023/09/25 08:52:36;;;;;;;;;;;;;;;15.09;100.00;100403.91;4885636;29;20039;-77
2023/09/25 08:55:02;;;;;;;;;;;;;;;15.15;100.00;100397.97;4885689;29;19970;-77
2023/09/25 08:57:27;;;;;;;;;;;;;;;15.23;100.00;100407.03;4883872;29;19931;-77
2023/09/25 08:59:53;;;;;;;;;;;;;;;15.29;100.00;100404.59;4886816;29;19992;-78
2023/09/25 09:02:18;;;;;;;;;;;;;;;15.35;100.00;100397.84;4884158;29;20019;-78
2023/09/25 09:04:44;;;;;;;;;;;;;;;15.41;100.00;100394.56;4886603;29;19924;-78
2023/09/25 09:07:10;;;;;;;;;;;;;;;15.48;100.00;100399.13;4868017;29;19931;-77
2023/09/25 09:09:35;;;;;;;;;;;;;;;15.55;100.00;100399.38;4885484;29;19924;-77
2023/09/25 09:12:01;;;;;;;;;;;;;;;15.59;100.00;100400.72;4888998;29;19990;-76
2023/09/25 09:14:40;;;;;;;;;;;;;;;15.67;100.00;100392.78;4884125;29;20408;-78
2023/09/25 09:17:09;;;;;;;;;;;;;;;15.71;100.00;100391.50;4884942;29;19973;-77
2023/09/25 09:19:46;;;;;;;;;;;;;;;15.77;100.00;100382.91;4885205;29;20026;-77
2023/09/25 09:22:17;;;;;;;;;;;;;;;15.83;100.00;100387.59;4884492;29;19930;-78
2023/09/25 09:24:43;;;;;;;;;;;;;;;15.86;100.00;100381.13;4886686;29;19929;-77
2023/09/25 09:27:09;;;;;;;;;;;;;;;15.91;100.00;100378.81;4884382;29;20035;-76
2023/09/25 09:29:35;;;;;;;;;;;;;;;15.96;100.00;100371.22;4883315;29;20448;-77
2023/09/25 09:32:00;;;;;;;;;;;;;;;16.04;100.00;100373.06;4884811;29;19963;-77
2023/09/25 09:34:25;;;;;;;;;;;;;;;16.11;100.00;100368.78;4869304;29;19967;-77
2023/09/25 09:36:51;;;;;;;;;;;;;;;16.17;100.00;100368.16;4866843;29;20018;-78
2023/09/25 09:39:27;;;;;;;;;;;;;;;16.24;100.00;100374.53;4883559;29;19928;-78
2023/09/25 09:41:53;;;;;;;;;;;;;;;16.32;100.00;100363.88;4887332;29;19972;-78
2023/09/25 09:44:19;;;;;;;;;;;;;;;16.37;100.00;100364.28;4883486;29;19934;-78
2023/09/25 09:46:46;;;;;;;;;;;;;;;16.44;100.00;100359.94;4869308;29;19928;-78
2023/09/25 09:49:15;;;;;;;;;;;;;;;16.51;100.00;100355.66;4886695;29;19931;-78
2023/09/25 09:51:44;;;;;;;;;;;;;;;16.59;100.00;100362.84;4889437;29;19924;-78
2023/09/25 09:54:13;;;;;;;;;;;;;;;16.63;100.00;100359.72;4887954;29;19935;-78
2023/09/25 09:56:38;;;;;;;;;;;;;;;16.70;100.00;100355.41;4888755;29;20626;-78
2023/09/25 09:59:04;;;;;;;;;;;;;;;16.78;100.00;100358.13;4888284;29;20383;-78
2023/09/25 10:01:30;;;;;;;;;;;;;;;16.84;100.00;100355.78;4887624;29;19924;-78
2023/09/25 10:03:56;;;;;;;;;;;;;;;16.94;100.00;100351.13;4889537;29;19973;-78
2023/09/25 10:06:25;;;;;;;;;;;;;;;17.01;100.00;100346.81;4886949;29;19958;-76
2023/09/25 10:09:00;;;;;;;;;;;;;;;17.04;100.00;100341.13;4890124;29;19924;-77
2023/09/25 10:11:26;;;;;;;;;;;;;;;17.08;100.00;100347.81;4889747;29;19920;-78
2023/09/25 10:13:55;;;;;;;;;;;;;;;17.16;100.00;100342.47;4889798;29;20360;-77
2023/09/25 10:16:20;;;;;;;;;;;;;;;17.23;100.00;100335.50;4886625;29;19952;-79
2023/09/25 10:18:50;;;;;;;;;;;;;;;17.27;100.00;100326.16;4889369;29;20022;-77
2023/09/25 10:21:15;;;;;;;;;;;;;;;17.34;100.00;100332.47;4887091;29;19969;-78
2023/09/25 10:23:42;;;;;;;;;;;;;;;17.41;100.00;100327.31;4872262;29;19970;-75
2023/09/25 10:26:21;;;;;;;;;;;;;;;17.52;100.00;100325.13;4887941;29;19923;-78
2023/09/25 10:29:10;;;;;;;;;;;;;;;17.54;100.00;100328.47;4889259;29;19927;-78
2023/09/25 10:31:35;;;;;;;;;;;;;;;17.64;100.00;100330.16;4887743;29;20412;-78
2023/09/25 10:34:00;;;;;;;;;;;;;;;17.70;100.00;100321.47;4871433;29;19924;-78
2023/09/25 10:36:37;;;;;;;;;;;;;;;17.74;100.00;100320.13;4886696;29;19935;-78
2023/09/25 10:39:05;;;;;;;;;;;;;;;17.74;100.00;100318.28;4888001;29;19924;-79
2023/09/25 10:41:30;;;;;;;;;;;;;;;17.76;100.00;100321.63;4889715;29;20384;-78
2023/09/25 10:43:57;;;;;;;;;;;;;;;17.81;100.00;100329.13;4888883;29;19920;-79
2023/09/25 10:46:22;;;;;;;;;;;;;;;17.85;100.00;100330.44;4869201;29;19931;-77
2023/09/25 10:48:47;;;;;;;;;;;;;;;17.89;100.00;100326.44;4888919;29;20292;-78
2023/09/25 10:51:15;;;;;;;;;;;;;;;17.95;100.00;100331.09;4886474;29;19924;-78
2023/09/25 10:53:40;;;;;;;;;;;;;;;17.99;100.00;100325.22;4887740;29;20076;-77
2023/09/25 10:56:05;;;;;;;;;;;;;;;18.03;100.00;100317.69;4891448;29;20006;-77
2023/09/25 10:58:31;;;;;;;;;;;;;;;18.07;100.00;100313.69;4890353;29;19924;-76
2023/09/25 11:00:56;;;;;;;;;;;;;;;18.11;100.00;100312.34;4892298;29;19938;-77
2023/09/25 11:03:22;;;;;;;;;;;;;;;18.18;100.00;100309.81;4883899;29;19924;-77
2023/09/25 11:05:48;;;;;;;;;;;;;;;18.24;100.00;100303.78;4887019;29;19927;-78
2023/09/25 11:08:15;;;;;;;;;;;;;;;18.30;100.00;100309.25;4884199;29;20426;-78
2023/09/25 11:10:41;;;;;;;;;;;;;;;18.36;100.00;100308.56;4891145;29;20096;-78
2023/09/25 11:13:07;;;;;;;;;;;;;;;18.45;100.00;100311.19;4214800;29;10000589;-79
2023/09/25 11:15:38;;;;;;;;;;;;;;;18.56;100.00;100308.97;4874333;29;19930;-78
2023/09/25 11:18:08;;;;;;;;;;;;;;;18.69;100.00;100303.88;4889390;29;20147;-77
2023/09/25 11:20:34;;;;;;;;;;;;;;;18.84;100.00;100301.28;4890435;29;19927;-76
2023/09/25 11:23:08;;;;;;;;;;;;;;;18.97;100.00;100301.50;4885186;29;19934;-78
2023/09/25 11:25:42;;;;;;;;;;;;;;;19.12;100.00;100299.75;4886766;29;19927;-77
2023/09/25 11:28:11;;;;;;;;;;;;;;;19.31;100.00;100302.94;4888402;29;19931;-77
2023/09/25 11:30:38;;;;;;;;;;;;;;;19.46;100.00;100299.28;4886845;29;19927;-77
2023/09/25 11:33:04;;;;;;;;;;;;;;;19.63;100.00;100300.78;4858417;29;20011;-77
2023/09/25 11:35:34;;;;;;;;;;;;;;;19.82;100.00;100298.59;4893541;29;19923;-76
2023/09/25 11:38:00;;;;;;;;;;;;;;;19.98;100.00;100287.69;4896162;29;19924;-75
2023/09/25 11:40:30;;;;;;;;;;;;;;;20.14;100.00;100294.72;4896042;29;20388;-77
2023/09/25 11:42:56;;;;;;;;;;;;;;;20.31;100.00;100296.16;4896060;29;19927;-76
2023/09/25 11:45:22;;;;;;;;;;;;;;;20.53;100.00;100300.56;4896838;29;20010;-78
2023/09/25 11:47:48;;;;;;;;;;;;;;;20.74;100.00;100286.34;4878476;29;20385;-77
2023/09/25 11:50:15;;;;;;;;;;;;;;;20.90;100.00;100296.03;4896110;29;19924;-75
2023/09/25 11:52:41;;;;;;;;;;;;;;;21.07;100.00;100292.06;4895844;29;19936;-77
2023/09/25 11:55:16;;;;;;;;;;;;;;;21.20;100.00;100286.84;4895694;29;19934;-77
2023/09/25 11:57:42;;;;;;;;;;;;;;;21.36;100.00;100288.41;4897231;29;19924;-76
2023/09/25 12:00:12;;;;;;;;;;;;;;;21.49;100.00;100278.59;4890268;29;20330;-79
2023/09/25 12:02:41;;;;;;;;;;;;;;;21.71;100.00;100283.91;4887061;29;19930;-79
2023/09/25 12:05:06;;;;;;;;;;;;;;;21.91;100.00;100290.22;4888663;29;19927;-78
2023/09/25 12:07:32;;;;;;;;;;;;;;;22.05;100.00;100282.06;4893739;29;20400;-78
2023/09/25 12:09:59;;;;;;;;;;;;;;;22.20;100.00;100290.00;4894399;29;19935;-80
2023/09/25 12:12:24;;;;;;;;;;;;;;;22.35;100.00;100277.22;4890945;29;20014;-78
2023/09/25 12:14:51;;;;;;;;;;;;;;;22.51;100.00;100280.56;4887765;29;20019;-79
2023/09/25 12:17:17;;;;;;;;;;;;;;;22.71;100.00;100276.09;4894197;29;20380;-79
2023/09/25 12:19:42;;;;;;;;;;;;;;;22.87;100.00;100275.72;4889643;29;19927;-78
2023/09/25 12:22:08;;;;;;;;;;;;;;;22.99;100.00;100274.09;4894757;29;19927;-79